createdAt,value
2017-12-28T00:00:05.242Z,993.39
2017-12-28T00:01:07.807Z,993.4
2017-12-28T00:02:05.238Z,993.4
2017-12-28T00:03:05.689Z,993.42
2017-12-28T00:04:05.655Z,993.39
2017-12-28T00:05:05.110Z,993.37
2017-12-28T00:06:04.975Z,993.37
2017-12-28T00:07:05.548Z,993.38
2017-12-28T00:08:05.755Z,993.38
2017-12-28T00:09:05.951Z,993.37
2017-12-28T00:10:07.027Z,993.39
2017-12-28T00:11:07.209Z,993.41
2017-12-28T00:12:05.472Z,993.43
2017-12-28T00:13:05.845Z,993.42
2017-12-28T00:14:07.442Z,993.43
2017-12-28T00:15:07.081Z,993.35
2017-12-28T00:16:06.010Z,993.37
2017-12-28T00:17:06.993Z,993.38
2017-12-28T00:18:07.761Z,993.38
2017-12-28T00:19:05.937Z,993.35
2017-12-28T00:20:06.044Z,993.39
2017-12-28T00:21:05.769Z,993.39
2017-12-28T00:22:05.449Z,993.45
2017-12-28T00:23:05.793Z,993.46
2017-12-28T00:24:07.206Z,993.49
2017-12-28T00:25:07.158Z,993.51
2017-12-28T00:26:07.330Z,993.51
2017-12-28T00:27:07.115Z,993.51
2017-12-28T00:28:07.388Z,993.51
2017-12-28T00:29:07.051Z,993.54
2017-12-28T00:30:05.984Z,993.55
2017-12-28T00:31:05.855Z,993.55
2017-12-28T00:32:06.032Z,993.51
2017-12-28T00:33:05.631Z,993.53
2017-12-28T00:34:05.652Z,993.49
2017-12-28T00:35:05.544Z,993.53
2017-12-28T00:36:05.392Z,993.55
2017-12-28T00:37:07.153Z,993.59
2017-12-28T00:38:07.037Z,993.65
2017-12-28T00:39:05.972Z,993.61
2017-12-28T00:40:05.921Z,993.65
2017-12-28T00:41:05.788Z,993.68
2017-12-28T00:42:05.682Z,993.69
2017-12-28T00:43:05.530Z,993.78
2017-12-28T00:44:05.741Z,993.77
2017-12-28T00:45:05.671Z,993.76
2017-12-28T00:46:06.001Z,993.77
2017-12-28T00:47:06.049Z,993.76
2017-12-28T00:48:05.683Z,993.74
2017-12-28T00:49:05.706Z,993.77
2017-12-28T00:50:06.004Z,993.79
2017-12-28T00:51:05.964Z,993.8
2017-12-28T00:52:07.416Z,993.83
2017-12-28T00:53:05.545Z,993.82
2017-12-28T00:54:05.568Z,993.82
2017-12-28T00:55:05.880Z,993.82
2017-12-28T00:56:06.021Z,993.77
2017-12-28T00:57:07.313Z,993.82
2017-12-28T00:58:07.438Z,993.83
2017-12-28T00:59:06.950Z,993.86
2017-12-28T01:00:06.033Z,993.81
2017-12-28T01:01:07.091Z,993.85
2017-12-28T01:02:07.497Z,993.89
2017-12-28T01:03:05.936Z,993.85
2017-12-28T01:04:07.502Z,993.85
2017-12-28T01:05:05.789Z,993.85
2017-12-28T01:06:07.533Z,993.89
2017-12-28T01:07:05.884Z,993.88
2017-12-28T01:08:07.262Z,993.82
2017-12-28T01:09:05.063Z,993.89
2017-12-28T01:10:05.651Z,993.86
2017-12-28T01:11:05.838Z,993.88
2017-12-28T01:12:05.075Z,993.86
2017-12-28T01:13:05.106Z,993.94
2017-12-28T01:14:05.532Z,993.96
2017-12-28T01:15:05.683Z,993.91
2017-12-28T01:16:05.505Z,993.95
2017-12-28T01:17:05.961Z,993.9
2017-12-28T01:18:06.010Z,993.91
2017-12-28T01:19:08.147Z,993.99
2017-12-28T01:20:07.279Z,993.96
2017-12-28T01:21:05.329Z,993.98
2017-12-28T01:22:05.440Z,993.98
2017-12-28T01:23:05.475Z,994
2017-12-28T01:24:07.863Z,994.02
2017-12-28T01:25:05.532Z,994.03
2017-12-28T01:26:05.981Z,994.04
2017-12-28T01:27:05.124Z,994.06
2017-12-28T01:28:05.541Z,994.04
2017-12-28T01:29:05.280Z,994.04
2017-12-28T01:30:05.547Z,994.02
2017-12-28T01:31:05.661Z,994.04
2017-12-28T01:32:07.645Z,994.05
2017-12-28T01:33:06.082Z,994.08
2017-12-28T01:34:05.822Z,994.09
2017-12-28T01:35:05.263Z,994.15
2017-12-28T01:36:06.927Z,994.18
2017-12-28T01:37:05.488Z,994.14
2017-12-28T01:38:05.636Z,994.15
2017-12-28T01:39:05.659Z,994.17
2017-12-28T01:40:08.071Z,994.09
2017-12-28T01:41:07.670Z,994.19
2017-12-28T01:42:05.645Z,994.16
2017-12-28T01:43:07.264Z,994.16
2017-12-28T01:44:07.353Z,994.2
2017-12-28T01:45:07.484Z,994.21
2017-12-28T01:46:07.605Z,994.21
2017-12-28T01:47:05.834Z,994.21
2017-12-28T01:48:07.637Z,994.16
2017-12-28T01:49:07.741Z,994.14
2017-12-28T01:50:05.794Z,994.12
2017-12-28T01:51:05.843Z,994.17
2017-12-28T01:52:07.312Z,994.18
2017-12-28T01:53:07.331Z,994.13
2017-12-28T01:54:07.247Z,994.18
2017-12-28T01:55:07.592Z,994.2
2017-12-28T01:56:05.794Z,994.16
2017-12-28T01:57:07.582Z,994.2
2017-12-28T01:58:05.833Z,994.19
2017-12-28T01:59:06.034Z,994.23
2017-12-28T02:00:07.357Z,994.2
2017-12-28T02:01:09.319Z,994.22
2017-12-28T02:02:07.613Z,994.24
2017-12-28T02:03:07.867Z,994.24
2017-12-28T02:04:06.072Z,994.22
2017-12-28T02:05:07.808Z,994.28
2017-12-28T02:06:07.276Z,994.24
2017-12-28T02:07:06.102Z,994.23
2017-12-28T02:08:05.726Z,994.2
2017-12-28T02:09:06.049Z,994.3
2017-12-28T02:10:07.906Z,994.26
2017-12-28T02:11:06.091Z,994.28
2017-12-28T02:12:05.813Z,994.29
2017-12-28T02:13:07.969Z,994.31
2017-12-28T02:14:07.649Z,994.32
2017-12-28T02:15:05.759Z,994.31
2017-12-28T02:16:05.955Z,994.34
2017-12-28T02:17:05.553Z,994.36
2017-12-28T02:18:05.421Z,994.4
2017-12-28T02:19:05.431Z,994.41
2017-12-28T02:20:05.552Z,994.42
2017-12-28T02:21:05.667Z,994.42
2017-12-28T02:22:05.429Z,994.48
2017-12-28T02:23:05.521Z,994.48
2017-12-28T02:24:05.414Z,994.5
2017-12-28T02:25:05.175Z,994.46
2017-12-28T02:26:05.761Z,994.44
2017-12-28T02:27:05.902Z,994.46
2017-12-28T02:28:05.070Z,994.5
2017-12-28T02:29:05.110Z,994.51
2017-12-28T02:30:05.104Z,994.47
2017-12-28T02:31:05.510Z,994.52
2017-12-28T02:32:05.770Z,994.52
2017-12-28T02:33:05.812Z,994.53
2017-12-28T02:34:04.983Z,994.52
2017-12-28T02:35:05.005Z,994.54
2017-12-28T02:36:05.113Z,994.56
2017-12-28T02:37:05.274Z,994.61
2017-12-28T02:38:05.807Z,994.55
2017-12-28T02:39:05.759Z,994.58
2017-12-28T02:40:05.878Z,994.64
2017-12-28T02:41:05.485Z,994.64
2017-12-28T02:43:05.537Z,994.7
2017-12-28T02:44:05.372Z,994.7
2017-12-28T02:45:05.107Z,994.67
2017-12-28T02:46:05.228Z,994.71
2017-12-28T02:47:05.917Z,994.75
2017-12-28T02:48:05.909Z,994.77
2017-12-28T02:49:05.782Z,994.76
2017-12-28T02:50:05.819Z,994.82
2017-12-28T02:51:05.440Z,994.81
2017-12-28T02:52:05.062Z,994.76
2017-12-28T02:53:05.848Z,994.76
2017-12-28T02:54:05.580Z,994.8
2017-12-28T02:55:05.364Z,994.8
2017-12-28T02:56:05.237Z,994.81
2017-12-28T02:57:05.776Z,994.85
2017-12-28T02:58:05.498Z,994.87
2017-12-28T02:59:05.421Z,994.86
2017-12-28T03:00:05.254Z,994.95
2017-12-28T03:01:05.887Z,994.94
2017-12-28T03:02:05.677Z,994.91
2017-12-28T03:03:05.333Z,994.9
2017-12-28T03:04:05.319Z,994.93
2017-12-28T03:05:05.044Z,994.9
2017-12-28T03:06:05.166Z,994.93
2017-12-28T03:07:05.147Z,994.94
2017-12-28T03:08:05.254Z,994.94
2017-12-28T03:09:05.823Z,994.98
2017-12-28T03:10:05.708Z,994.95
2017-12-28T03:11:05.536Z,995.01
2017-12-28T03:12:07.136Z,994.98
2017-12-28T03:13:05.753Z,995.04
2017-12-28T03:14:05.549Z,995.04
2017-12-28T03:15:07.513Z,995.13
2017-12-28T03:16:05.904Z,995.13
2017-12-28T03:17:06.035Z,995.19
2017-12-28T03:18:06.013Z,995.18
2017-12-28T03:19:05.657Z,995.21
2017-12-28T03:20:05.685Z,995.28
2017-12-28T03:21:07.214Z,995.26
2017-12-28T03:22:05.645Z,995.31
2017-12-28T03:23:05.842Z,995.32
2017-12-28T03:24:06.433Z,995.35
2017-12-28T03:25:06.159Z,995.34
2017-12-28T03:26:05.882Z,995.36
2017-12-28T03:27:05.838Z,995.37
2017-12-28T03:28:05.536Z,995.4
2017-12-28T03:29:05.482Z,995.46
2017-12-28T03:30:06.907Z,995.47
2017-12-28T03:31:05.808Z,995.46
2017-12-28T03:32:05.733Z,995.5
2017-12-28T03:33:05.979Z,995.5
2017-12-28T03:34:06.114Z,995.5
2017-12-28T03:35:07.110Z,995.5
2017-12-28T03:36:07.421Z,995.54
2017-12-28T03:37:06.004Z,995.56
2017-12-28T03:38:05.895Z,995.59
2017-12-28T03:39:05.645Z,995.61
2017-12-28T03:40:05.828Z,995.65
2017-12-28T03:41:05.640Z,995.66
2017-12-28T03:42:06.990Z,995.71
2017-12-28T03:43:05.910Z,995.71
2017-12-28T03:44:07.636Z,995.72
2017-12-28T03:45:05.836Z,995.7
2017-12-28T03:46:07.173Z,995.75
2017-12-28T03:47:07.150Z,995.74
2017-12-28T03:48:07.366Z,995.76
2017-12-28T03:49:07.019Z,995.79
2017-12-28T03:50:07.268Z,995.77
2017-12-28T03:51:07.436Z,995.81
2017-12-28T03:52:06.179Z,995.83
2017-12-28T03:53:06.002Z,995.87
2017-12-28T03:55:06.056Z,995.91
2017-12-28T03:56:08.406Z,995.92
2017-12-28T03:57:07.778Z,995.96
2017-12-28T03:58:05.769Z,996
2017-12-28T03:59:07.422Z,996.04
2017-12-28T04:00:07.657Z,996.03
2017-12-28T04:01:05.787Z,996.06
2017-12-28T04:02:05.765Z,996.07
2017-12-28T04:03:06.089Z,996.08
2017-12-28T04:04:06.196Z,996.13
2017-12-28T04:05:06.052Z,996.17
2017-12-28T04:06:07.234Z,996.14
2017-12-28T04:07:07.471Z,996.17
2017-12-28T04:08:07.465Z,996.22
2017-12-28T04:09:07.764Z,996.26
2017-12-28T04:10:07.890Z,996.31
2017-12-28T04:11:06.066Z,996.27
2017-12-28T04:12:05.905Z,996.33
2017-12-28T04:13:05.198Z,996.35
2017-12-28T04:14:05.466Z,996.39
2017-12-28T04:15:05.580Z,996.39
2017-12-28T04:16:05.453Z,996.38
2017-12-28T04:17:05.442Z,996.45
2017-12-28T04:18:05.526Z,996.44
2017-12-28T04:19:05.646Z,996.45
2017-12-28T04:20:05.644Z,996.47
2017-12-28T04:21:05.243Z,996.45
2017-12-28T04:22:05.376Z,996.5
2017-12-28T04:23:05.901Z,996.49
2017-12-28T04:24:05.903Z,996.47
2017-12-28T04:25:05.410Z,996.51
2017-12-28T04:26:05.756Z,996.5
2017-12-28T04:27:05.190Z,996.52
2017-12-28T04:28:05.198Z,996.51
2017-12-28T04:29:05.410Z,996.53
2017-12-28T04:30:05.793Z,996.57
2017-12-28T04:31:05.202Z,996.61
2017-12-28T04:32:05.536Z,996.61
2017-12-28T04:33:05.900Z,996.65
2017-12-28T04:34:05.054Z,996.62
2017-12-28T04:35:04.999Z,996.63
2017-12-28T04:36:05.139Z,996.66
2017-12-28T04:37:05.292Z,996.69
2017-12-28T04:38:05.170Z,996.68
2017-12-28T04:39:05.398Z,996.69
2017-12-28T04:40:05.611Z,996.66
2017-12-28T04:41:05.268Z,996.68
2017-12-28T04:42:05.614Z,996.72
2017-12-28T04:43:05.585Z,996.74
2017-12-28T04:44:05.592Z,996.72
2017-12-28T04:45:07.530Z,996.76
2017-12-28T04:46:05.581Z,996.79
2017-12-28T04:47:07.663Z,996.81
2017-12-28T04:48:05.942Z,996.82
2017-12-28T04:49:06.186Z,996.9
2017-12-28T04:50:07.555Z,996.89
2017-12-28T04:51:05.689Z,996.95
2017-12-28T04:52:05.683Z,996.97
2017-12-28T04:53:05.628Z,997.03
2017-12-28T04:54:05.730Z,997.01
2017-12-28T04:55:05.988Z,997.07
2017-12-28T04:56:06.093Z,997.05
2017-12-28T04:57:07.152Z,997.09
2017-12-28T04:58:07.590Z,997.1
2017-12-28T04:59:06.043Z,997.13
2017-12-28T05:00:07.520Z,997.15
2017-12-28T05:01:05.931Z,997.21
2017-12-28T05:02:07.385Z,997.22
2017-12-28T05:03:05.638Z,997.18
2017-12-28T05:04:06.007Z,997.26
2017-12-28T05:05:06.194Z,997.22
2017-12-28T05:06:05.746Z,997.29
2017-12-28T05:07:06.021Z,997.27
2017-12-28T05:08:07.380Z,997.31
2017-12-28T05:09:07.229Z,997.36
2017-12-28T05:10:05.639Z,997.29
2017-12-28T05:11:07.550Z,997.39
2017-12-28T05:12:05.751Z,997.38
2017-12-28T05:13:07.787Z,997.38
2017-12-28T05:14:06.057Z,997.44
2017-12-28T05:15:06.241Z,997.49
2017-12-28T05:16:07.509Z,997.53
2017-12-28T05:17:07.740Z,997.56
2017-12-28T05:18:05.945Z,997.59
2017-12-28T05:19:07.718Z,997.58
2017-12-28T05:20:05.982Z,997.64
2017-12-28T05:21:06.068Z,997.69
2017-12-28T05:22:06.347Z,997.66
2017-12-28T05:23:06.361Z,997.72
2017-12-28T05:24:06.505Z,997.71
2017-12-28T05:25:06.628Z,997.8
2017-12-28T05:26:06.757Z,997.8
2017-12-28T05:27:06.061Z,997.82
2017-12-28T05:28:06.020Z,997.83
2017-12-28T05:29:06.109Z,997.85
2017-12-28T05:30:06.115Z,997.86
2017-12-28T05:31:06.330Z,997.89
2017-12-28T05:32:06.614Z,997.9
2017-12-28T05:33:06.767Z,997.95
2017-12-28T05:34:05.845Z,997.93
2017-12-28T05:35:05.872Z,997.96
2017-12-28T05:36:06.183Z,997.99
2017-12-28T05:37:06.331Z,998.04
2017-12-28T05:38:06.410Z,998.08
2017-12-28T05:39:06.599Z,998.15
2017-12-28T05:40:05.775Z,998.15
2017-12-28T05:41:05.736Z,998.14
2017-12-28T05:42:06.852Z,998.17
2017-12-28T05:43:06.111Z,998.18
2017-12-28T05:44:06.311Z,998.22
2017-12-28T05:45:06.543Z,998.23
2017-12-28T05:46:06.702Z,998.26
2017-12-28T05:47:05.982Z,998.28
2017-12-28T05:48:06.050Z,998.26
2017-12-28T05:49:06.239Z,998.28
2017-12-28T05:50:06.372Z,998.31
2017-12-28T05:51:06.663Z,998.31
2017-12-28T05:52:05.759Z,998.3
2017-12-28T05:53:05.846Z,998.3
2017-12-28T05:54:06.144Z,998.31
2017-12-28T05:55:06.134Z,998.33
2017-12-28T05:56:06.399Z,998.28
2017-12-28T05:57:06.477Z,998.31
2017-12-28T05:58:06.723Z,998.35
2017-12-28T05:59:05.941Z,998.38
2017-12-28T06:00:05.990Z,998.46
2017-12-28T06:01:06.187Z,998.51
2017-12-28T06:02:06.034Z,998.51
2017-12-28T06:03:06.039Z,998.55
2017-12-28T06:04:05.997Z,998.53
2017-12-28T06:05:06.037Z,998.54
2017-12-28T06:06:05.847Z,998.54
2017-12-28T06:07:05.795Z,998.59
2017-12-28T06:08:06.098Z,998.56
2017-12-28T06:09:06.285Z,998.59
2017-12-28T06:10:06.502Z,998.55
2017-12-28T06:11:06.603Z,998.59
2017-12-28T06:12:06.600Z,998.63
2017-12-28T06:13:06.514Z,998.63
2017-12-28T06:14:05.592Z,998.69
2017-12-28T06:15:05.730Z,998.71
2017-12-28T06:16:05.914Z,998.71
2017-12-28T06:17:05.945Z,998.72
2017-12-28T06:18:06.014Z,998.75
2017-12-28T06:19:05.957Z,998.8
2017-12-28T06:20:06.218Z,998.81
2017-12-28T06:21:06.577Z,998.83
2017-12-28T06:22:05.532Z,998.83
2017-12-28T06:23:05.560Z,998.9
2017-12-28T06:24:05.759Z,998.89
2017-12-28T06:25:05.730Z,998.88
2017-12-28T06:26:05.806Z,998.9
2017-12-28T06:27:05.732Z,998.9
2017-12-28T06:28:05.901Z,998.94
2017-12-28T06:29:06.044Z,998.95
2017-12-28T06:30:06.243Z,998.95
2017-12-28T06:31:06.307Z,998.97
2017-12-28T06:32:06.331Z,999
2017-12-28T06:33:06.212Z,999.01
2017-12-28T06:34:05.853Z,999.04
2017-12-28T06:37:06.597Z,999.09
2017-12-28T06:38:06.570Z,999.11
2017-12-28T06:39:06.260Z,999.1
2017-12-28T06:40:06.060Z,999.13
2017-12-28T06:41:05.582Z,999.21
2017-12-28T06:42:05.531Z,999.17
2017-12-28T06:43:05.557Z,999.25
2017-12-28T06:44:05.740Z,999.21
2017-12-28T06:45:05.844Z,999.28
2017-12-28T06:46:05.895Z,999.31
2017-12-28T06:48:09.969Z,999.31
2017-12-28T06:49:05.992Z,999.33
2017-12-28T06:50:06.205Z,999.37
2017-12-28T06:51:06.034Z,999.36
2017-12-28T06:52:05.952Z,999.38
2017-12-28T06:53:05.870Z,999.42
2017-12-28T06:54:05.822Z,999.49
2017-12-28T06:55:05.678Z,999.49
2017-12-28T06:56:05.706Z,999.5
2017-12-28T06:57:05.721Z,999.52
2017-12-28T06:58:05.749Z,999.54
2017-12-28T06:59:05.719Z,999.54
2017-12-28T07:00:05.735Z,999.53
2017-12-28T07:01:06.624Z,999.57
2017-12-28T07:02:06.414Z,999.6
2017-12-28T07:03:06.519Z,999.62
2017-12-28T07:04:05.716Z,999.63
2017-12-28T07:05:05.815Z,999.64
2017-12-28T07:06:06.012Z,999.72
2017-12-28T07:07:06.020Z,999.69
2017-12-28T07:08:05.959Z,999.73
2017-12-28T07:09:06.098Z,999.74
2017-12-28T07:10:05.958Z,999.8
2017-12-28T07:11:05.946Z,999.8
2017-12-28T07:12:06.174Z,999.85
2017-12-28T07:13:06.233Z,999.88
2017-12-28T07:14:05.785Z,999.91
2017-12-28T07:15:06.532Z,999.91
2017-12-28T07:16:06.525Z,999.95
2017-12-28T07:17:06.243Z,999.99
2017-12-28T07:18:05.837Z,1000.01
2017-12-28T07:19:06.007Z,1000.07
2017-12-28T07:20:06.312Z,1000.05
2017-12-28T07:21:06.979Z,1000.11
2017-12-28T07:22:06.282Z,1000.1
2017-12-28T07:23:06.542Z,1000.14
2017-12-28T07:24:06.092Z,1000.11
2017-12-28T07:25:05.964Z,1000.17
2017-12-28T07:26:06.135Z,1000.16
2017-12-28T07:27:06.104Z,1000.18
2017-12-28T07:28:06.358Z,1000.17
2017-12-28T07:29:06.058Z,1000.2
2017-12-28T07:30:06.514Z,1000.23
2017-12-28T07:31:06.604Z,1000.2
2017-12-28T07:32:06.660Z,1000.21
2017-12-28T07:33:06.274Z,1000.2
2017-12-28T07:34:06.035Z,1000.24
2017-12-28T07:35:06.795Z,1000.25
2017-12-28T07:36:06.280Z,1000.28
2017-12-28T07:37:06.666Z,1000.28
2017-12-28T07:38:06.408Z,1000.34
2017-12-28T07:39:06.577Z,1000.37
2017-12-28T07:40:06.609Z,1000.38
2017-12-28T07:41:05.956Z,1000.42
2017-12-28T07:42:06.227Z,1000.42
2017-12-28T07:43:06.217Z,1000.45
2017-12-28T07:44:06.449Z,1000.5
2017-12-28T07:45:05.544Z,1000.5
2017-12-28T07:46:05.425Z,1000.48
2017-12-28T07:47:05.507Z,1000.49
2017-12-28T07:48:05.517Z,1000.56
2017-12-28T07:49:05.614Z,1000.59
2017-12-28T07:50:05.744Z,1000.61
2017-12-28T07:51:05.832Z,1000.62
2017-12-28T07:52:05.752Z,1000.64
2017-12-28T07:53:05.901Z,1000.7
2017-12-28T07:54:05.962Z,1000.68
2017-12-28T07:55:06.061Z,1000.72
2017-12-28T07:56:05.293Z,1000.74
2017-12-28T07:57:05.464Z,1000.75
2017-12-28T07:58:05.701Z,1000.77
2017-12-28T07:59:05.703Z,1000.78
2017-12-28T08:00:06.039Z,1000.83
2017-12-28T08:01:06.032Z,1000.78
2017-12-28T08:02:05.051Z,1000.81
2017-12-28T08:03:06.249Z,1000.83
2017-12-28T08:04:05.839Z,1000.85
2017-12-28T08:05:06.027Z,1000.92
2017-12-28T08:06:05.891Z,1000.94
2017-12-28T08:07:05.883Z,1000.89
2017-12-28T08:08:05.056Z,1000.97
2017-12-28T08:09:06.018Z,1000.96
2017-12-28T08:10:05.153Z,1000.96
2017-12-28T08:11:05.141Z,1001.01
2017-12-28T08:12:05.107Z,1000.99
2017-12-28T08:13:05.975Z,1001.04
2017-12-28T08:14:05.820Z,1001.04
2017-12-28T08:15:05.750Z,1001.1
2017-12-28T08:16:05.713Z,1001.1
2017-12-28T08:17:06.832Z,1001.09
2017-12-28T08:18:06.508Z,1001.14
2017-12-28T08:19:06.561Z,1001.15
2017-12-28T08:20:06.354Z,1001.16
2017-12-28T08:21:06.197Z,1001.23
2017-12-28T08:22:05.873Z,1001.23
2017-12-28T08:23:05.850Z,1001.24
2017-12-28T08:24:05.906Z,1001.21
2017-12-28T08:25:06.086Z,1001.22
2017-12-28T08:26:06.347Z,1001.23
2017-12-28T08:27:06.352Z,1001.23
2017-12-28T08:28:06.489Z,1001.3
2017-12-28T08:29:06.542Z,1001.28
2017-12-28T08:30:06.382Z,1001.3
2017-12-28T08:31:06.478Z,1001.36
2017-12-28T08:32:06.563Z,1001.35
2017-12-28T08:33:06.682Z,1001.38
2017-12-28T08:34:06.661Z,1001.43
2017-12-28T08:35:06.533Z,1001.44
2017-12-28T08:36:05.761Z,1001.49
2017-12-28T08:37:06.696Z,1001.48
2017-12-28T08:38:05.830Z,1001.5
2017-12-28T08:39:06.704Z,1001.54
2017-12-28T08:40:06.154Z,1001.54
2017-12-28T08:41:05.855Z,1001.56
2017-12-28T08:42:05.923Z,1001.63
2017-12-28T08:43:06.432Z,1001.62
2017-12-28T08:44:06.503Z,1001.67
2017-12-28T08:45:06.474Z,1001.73
2017-12-28T08:46:06.121Z,1001.7
2017-12-28T08:47:06.350Z,1001.69
2017-12-28T08:48:06.048Z,1001.76
2017-12-28T08:49:06.168Z,1001.8
2017-12-28T08:50:06.281Z,1001.78
2017-12-28T08:51:06.198Z,1001.87
2017-12-28T08:52:06.355Z,1001.85
2017-12-28T08:53:06.192Z,1001.86
2017-12-28T08:54:06.415Z,1001.89
2017-12-28T08:55:06.376Z,1001.86
2017-12-28T08:56:05.498Z,1001.87
2017-12-28T08:57:06.343Z,1001.88
2017-12-28T08:58:05.451Z,1001.93
2017-12-28T08:59:05.411Z,1001.94
2017-12-28T09:00:06.378Z,1001.96
2017-12-28T09:01:05.552Z,1002
2017-12-28T09:02:05.619Z,1001.97
2017-12-28T09:03:05.804Z,1002.04
2017-12-28T09:04:06.167Z,1002.07
2017-12-28T09:05:06.291Z,1002.05
2017-12-28T09:06:06.432Z,1002.11
2017-12-28T09:07:05.672Z,1002.13
2017-12-28T09:08:05.702Z,1002.16
2017-12-28T09:09:06.103Z,1002.19
2017-12-28T09:10:06.145Z,1002.2
2017-12-28T09:11:06.521Z,1002.26
2017-12-28T09:12:05.483Z,1002.29
2017-12-28T09:13:06.529Z,1002.35
2017-12-28T09:14:05.598Z,1002.33
2017-12-28T09:15:05.604Z,1002.38
2017-12-28T09:16:06.819Z,1002.41
2017-12-28T09:17:05.062Z,1002.36
2017-12-28T09:18:05.955Z,1002.42
2017-12-28T09:19:05.063Z,1002.42
2017-12-28T09:20:05.832Z,1002.45
2017-12-28T09:21:05.764Z,1002.48
2017-12-28T09:22:05.812Z,1002.49
2017-12-28T09:23:05.918Z,1002.45
2017-12-28T09:24:05.174Z,1002.45
2017-12-28T09:25:05.216Z,1002.51
2017-12-28T09:26:05.314Z,1002.47
2017-12-28T09:27:05.739Z,1002.49
2017-12-28T09:28:05.547Z,1002.51
2017-12-28T09:29:05.468Z,1002.52
2017-12-28T09:30:05.371Z,1002.59
2017-12-28T09:31:05.314Z,1002.63
2017-12-28T09:32:05.279Z,1002.66
2017-12-28T09:33:05.355Z,1002.73
2017-12-28T09:34:05.400Z,1002.75
2017-12-28T09:35:05.530Z,1002.77
2017-12-28T09:36:05.784Z,1002.77
2017-12-28T09:37:05.907Z,1002.74
2017-12-28T09:38:05.938Z,1002.76
2017-12-28T09:39:06.029Z,1002.84
2017-12-28T09:40:05.821Z,1002.83
2017-12-28T09:41:05.954Z,1002.86
2017-12-28T09:42:06.151Z,1002.83
2017-12-28T09:43:05.649Z,1002.83
2017-12-28T09:44:05.908Z,1002.82
2017-12-28T09:45:05.616Z,1002.85
2017-12-28T09:46:05.572Z,1002.85
2017-12-28T09:47:05.748Z,1002.81
2017-12-28T09:48:06.648Z,1002.87
2017-12-28T09:49:06.680Z,1002.92
2017-12-28T09:50:06.850Z,1002.9
2017-12-28T09:51:06.114Z,1002.92
2017-12-28T09:52:06.386Z,1002.91
2017-12-28T09:53:06.711Z,1002.88
2017-12-28T09:54:06.137Z,1002.89
2017-12-28T09:55:00.841Z,1002.89
2017-12-28T09:56:01.130Z,1002.91
2017-12-28T09:57:01.318Z,1002.9
2017-12-28T09:58:01.426Z,1002.91
2017-12-28T09:59:01.595Z,1002.94
2017-12-28T10:00:01.705Z,1002.91
2017-12-28T10:01:01.061Z,1002.92
2017-12-28T10:02:01.082Z,1002.96
2017-12-28T10:03:02.560Z,1002.95
2017-12-28T10:04:01.425Z,1002.96
2017-12-28T10:05:02.139Z,1003.01
2017-12-28T10:06:02.306Z,1003.01
2017-12-28T10:07:01.153Z,1003
2017-12-28T10:08:01.376Z,1002.99
2017-12-28T10:09:01.502Z,1002.98
2017-12-28T10:10:01.523Z,1002.97
2017-12-28T10:11:03.052Z,1002.99
2017-12-28T10:12:01.509Z,1003.02
2017-12-28T10:13:00.890Z,1003.06
2017-12-28T10:14:01.888Z,1003.07
2017-12-28T10:15:01.661Z,1003.08
2017-12-28T10:16:02.538Z,1003.09
2017-12-28T10:17:01.571Z,1003.14
2017-12-28T10:18:01.656Z,1003.12
2017-12-28T10:19:01.633Z,1003.11
2017-12-28T10:20:01.050Z,1003.17
2017-12-28T10:21:01.205Z,1003.16
2017-12-28T10:22:01.352Z,1003.14
2017-12-28T10:23:01.589Z,1003.13
2017-12-28T10:24:00.939Z,1003.15
2017-12-28T10:25:01.037Z,1003.24
2017-12-28T10:26:00.107Z,1003.15
2017-12-28T10:27:00.191Z,1003.22
2017-12-28T10:28:00.239Z,1003.21
2017-12-28T10:29:00.347Z,1003.21
2017-12-28T10:30:00.610Z,1003.23
2017-12-28T10:31:00.588Z,1003.22
2017-12-28T10:32:00.600Z,1003.22
2017-12-28T10:33:00.649Z,1003.22
2017-12-28T10:34:00.953Z,1003.17
2017-12-28T10:35:00.120Z,1003.19
2017-12-28T10:36:00.261Z,1003.23
2017-12-28T10:37:00.450Z,1003.22
2017-12-28T10:38:00.435Z,1003.21
2017-12-28T10:39:00.712Z,1003.16
2017-12-28T10:40:00.816Z,1003.16
2017-12-28T10:41:00.062Z,1003.2
2017-12-28T10:42:00.065Z,1003.19
2017-12-28T10:43:00.314Z,1003.2
2017-12-28T10:44:00.330Z,1003.23
2017-12-28T10:45:00.383Z,1003.27
2017-12-28T10:46:00.672Z,1003.28
2017-12-28T10:47:00.173Z,1003.26
2017-12-28T10:48:00.288Z,1003.29
2017-12-28T10:49:00.288Z,1003.31
2017-12-28T10:50:00.640Z,1003.31
2017-12-28T10:51:00.911Z,1003.34
2017-12-28T10:52:01.290Z,1003.35
2017-12-28T10:53:00.170Z,1003.4
2017-12-28T10:54:00.587Z,1003.37
2017-12-28T10:55:01.022Z,1003.43
2017-12-28T10:56:02.082Z,1003.44
2017-12-28T10:57:01.636Z,1003.37
2017-12-28T10:58:01.692Z,1003.39
2017-12-28T10:59:01.697Z,1003.44
2017-12-28T11:00:02.156Z,1003.43
2017-12-28T11:01:01.410Z,1003.43
2017-12-28T11:02:01.619Z,1003.43
2017-12-28T11:03:01.691Z,1003.44
2017-12-28T11:04:00.898Z,1003.46
2017-12-28T11:05:00.828Z,1003.43
2017-12-28T11:06:01.197Z,1003.42
2017-12-28T11:07:01.293Z,1003.44
2017-12-28T11:08:01.284Z,1003.43
2017-12-28T11:09:01.307Z,1003.46
2017-12-28T11:10:01.369Z,1003.44
2017-12-28T11:11:02.443Z,1003.49
2017-12-28T11:12:01.433Z,1003.55
2017-12-28T11:13:01.772Z,1003.56
2017-12-28T11:14:01.017Z,1003.57
2017-12-28T11:15:01.094Z,1003.59
2017-12-28T11:16:01.321Z,1003.65
2017-12-28T11:17:01.383Z,1003.64
2017-12-28T11:18:01.666Z,1003.69
2017-12-28T11:19:01.743Z,1003.68
2017-12-28T11:20:00.701Z,1003.7
2017-12-28T11:21:01.733Z,1003.75
2017-12-28T11:22:01.758Z,1003.72
2017-12-28T11:23:01.062Z,1003.67
2017-12-28T11:24:00.852Z,1003.74
2017-12-28T11:25:01.646Z,1003.74
2017-12-28T11:26:01.072Z,1003.72
2017-12-28T11:27:00.238Z,1003.72
2017-12-28T11:28:00.554Z,1003.74
2017-12-28T11:29:00.537Z,1003.71
2017-12-28T11:30:00.580Z,1003.75
2017-12-28T11:31:00.753Z,1003.75
2017-12-28T11:32:00.819Z,1003.77
2017-12-28T11:33:00.179Z,1003.75
2017-12-28T11:34:00.349Z,1003.79
2017-12-28T11:35:00.764Z,1003.76
2017-12-28T11:36:00.140Z,1003.78
2017-12-28T11:37:00.160Z,1003.79
2017-12-28T11:38:00.306Z,1003.81
2017-12-28T11:39:00.743Z,1003.78
2017-12-28T11:40:00.131Z,1003.76
2017-12-28T11:41:00.590Z,1003.77
2017-12-28T11:42:00.933Z,1003.74
2017-12-28T11:43:00.468Z,1003.83
2017-12-28T11:44:00.910Z,1003.78
2017-12-28T11:45:00.174Z,1003.82
2017-12-28T11:46:00.533Z,1003.81
2017-12-28T11:47:00.123Z,1003.8
2017-12-28T11:48:00.892Z,1003.86
2017-12-28T11:49:00.310Z,1003.89
2017-12-28T11:50:00.831Z,1003.88
2017-12-28T11:51:00.180Z,1003.89
2017-12-28T11:52:00.474Z,1003.91
2017-12-28T11:53:00.696Z,1003.85
2017-12-28T11:54:00.828Z,1003.88
2017-12-28T11:55:00.161Z,1003.89
2017-12-28T11:56:00.559Z,1003.91
2017-12-28T11:57:00.100Z,1003.92
2017-12-28T11:58:00.510Z,1003.99
2017-12-28T11:59:01.029Z,1003.99
2017-12-28T12:00:00.312Z,1004
2017-12-28T12:01:00.950Z,1004.02
2017-12-28T12:02:00.637Z,1004.02
2017-12-28T12:03:01.050Z,1004.04
2017-12-28T12:04:00.506Z,1004.07
2017-12-28T12:05:00.792Z,1004.03
2017-12-28T12:06:00.143Z,1004.08
2017-12-28T12:07:00.539Z,1004.09
2017-12-28T12:08:00.909Z,1004.2
2017-12-28T12:09:00.381Z,1004.2
2017-12-28T12:10:00.695Z,1004.18
2017-12-28T12:11:00.087Z,1004.22
2017-12-28T12:12:00.582Z,1004.19
2017-12-28T12:13:00.101Z,1004.17
2017-12-28T12:14:00.258Z,1004.21
2017-12-28T12:15:00.736Z,1004.24
2017-12-28T12:16:00.548Z,1004.25
2017-12-28T12:17:00.797Z,1004.21
2017-12-28T12:18:00.238Z,1004.25
2017-12-28T12:19:00.577Z,1004.27
2017-12-28T12:20:01.167Z,1004.25
2017-12-28T12:21:00.893Z,1004.28
2017-12-28T12:22:00.259Z,1004.25
2017-12-28T12:23:00.848Z,1004.27
2017-12-28T12:24:00.251Z,1004.27
2017-12-28T12:25:00.992Z,1004.28
2017-12-28T12:26:00.531Z,1004.37